sensor_id;sensor_type;location;lat;lon;timestamp;P1;durP1;ratioP1;P2;durP2;ratioP2
56065;SDS011;75952;50.922;4.514;2024-01-27T00:01:49;17.13;;;4.80;;
56065;SDS011;75952;50.922;4.514;2024-01-27T00:04:19;11.80;;;5.53;;
56065;SDS011;75952;50.922;4.514;2024-01-27T00:09:10;8.20;;;4.93;;
56065;SDS011;75952;50.922;4.514;2024-01-27T00:14:06;8.88;;;4.47;;
56065;SDS011;75952;50.922;4.514;2024-01-27T00:16:32;12.13;;;4.55;;
56065;SDS011;75952;50.922;4.514;2024-01-27T00:18:57;10.85;;;5.60;;
56065;SDS011;75952;50.922;4.514;2024-01-27T00:21:23;8.40;;;4.55;;
56065;SDS011;75952;50.922;4.514;2024-01-27T00:23:48;13.77;;;5.75;;
56065;SDS011;75952;50.922;4.514;2024-01-27T00:26:16;8.43;;;4.93;;
56065;SDS011;75952;50.922;4.514;2024-01-27T00:28:42;12.65;;;6.20;;
56065;SDS011;75952;50.922;4.514;2024-01-27T00:31:07;10.68;;;5.07;;
56065;SDS011;75952;50.922;4.514;2024-01-27T00:33:33;7.88;;;5.22;;
56065;SDS011;75952;50.922;4.514;2024-01-27T00:36:01;7.95;;;4.60;;
56065;SDS011;75952;50.922;4.514;2024-01-27T00:38:28;6.70;;;3.97;;
56065;SDS011;75952;50.922;4.514;2024-01-27T00:40:57;9.15;;;4.40;;
56065;SDS011;75952;50.922;4.514;2024-01-27T00:43:22;16.60;;;5.88;;
56065;SDS011;75952;50.922;4.514;2024-01-27T00:45:50;11.80;;;4.65;;
56065;SDS011;75952;50.922;4.514;2024-01-27T00:48:18;10.18;;;4.93;;
56065;SDS011;75952;50.922;4.514;2024-01-27T00:50:45;7.00;;;4.30;;
56065;SDS011;75952;50.922;4.514;2024-01-27T00:53:10;11.10;;;4.57;;
56065;SDS011;75952;50.922;4.514;2024-01-27T00:55:36;11.88;;;4.90;;
56065;SDS011;75952;50.922;4.514;2024-01-27T00:58:02;11.93;;;4.80;;
56065;SDS011;75952;50.922;4.514;2024-01-27T01:00:27;11.50;;;3.90;;
56065;SDS011;75952;50.922;4.514;2024-01-27T01:02:53;8.05;;;4.00;;
56065;SDS011;75952;50.922;4.514;2024-01-27T01:05:18;9.07;;;4.80;;
56065;SDS011;75952;50.922;4.514;2024-01-27T01:07:44;9.15;;;4.95;;
56065;SDS011;75952;50.922;4.514;2024-01-27T01:10:10;13.35;;;5.95;;
56065;SDS011;75952;50.922;4.514;2024-01-27T01:12:35;13.90;;;4.75;;
56065;SDS011;75952;50.922;4.514;2024-01-27T01:15:01;6.32;;;4.82;;
56065;SDS011;75952;50.922;4.514;2024-01-27T01:17:29;14.57;;;6.05;;
56065;SDS011;75952;50.922;4.514;2024-01-27T01:19:59;8.27;;;4.85;;
56065;SDS011;75952;50.922;4.514;2024-01-27T01:22:30;6.32;;;4.53;;
56065;SDS011;75952;50.922;4.514;2024-01-27T01:24:55;5.38;;;4.00;;
56065;SDS011;75952;50.922;4.514;2024-01-27T01:27:21;9.25;;;4.75;;
56065;SDS011;75952;50.922;4.514;2024-01-27T01:29:47;14.77;;;5.65;;
56065;SDS011;75952;50.922;4.514;2024-01-27T01:32:12;9.73;;;3.00;;
56065;SDS011;75952;50.922;4.514;2024-01-27T01:34:38;11.32;;;4.60;;
56065;SDS011;75952;50.922;4.514;2024-01-27T01:37:04;7.18;;;4.93;;
56065;SDS011;75952;50.922;4.514;2024-01-27T01:39:29;13.45;;;4.55;;
56065;SDS011;75952;50.922;4.514;2024-01-27T01:41:57;10.95;;;4.28;;
56065;SDS011;75952;50.922;4.514;2024-01-27T01:44:25;5.15;;;2.95;;
56065;SDS011;75952;50.922;4.514;2024-01-27T01:46:55;7.82;;;4.90;;
56065;SDS011;75952;50.922;4.514;2024-01-27T01:49:21;16.58;;;3.72;;
56065;SDS011;75952;50.922;4.514;2024-01-27T01:51:47;6.75;;;3.92;;
56065;SDS011;75952;50.922;4.514;2024-01-27T01:54:13;10.18;;;4.68;;
56065;SDS011;75952;50.922;4.514;2024-01-27T01:56:39;14.20;;;6.18;;
56065;SDS011;75952;50.922;4.514;2024-01-27T01:59:05;10.05;;;4.60;;
56065;SDS011;75952;50.922;4.514;2024-01-27T02:01:31;8.00;;;4.65;;
56065;SDS011;75952;50.922;4.514;2024-01-27T02:03:57;9.60;;;4.63;;
56065;SDS011;75952;50.922;4.514;2024-01-27T02:06:23;9.38;;;4.45;;
56065;SDS011;75952;50.922;4.514;2024-01-27T02:08:48;7.70;;;3.63;;
56065;SDS011;75952;50.922;4.514;2024-01-27T02:11:15;8.57;;;4.90;;
56065;SDS011;75952;50.922;4.514;2024-01-27T02:13:43;7.80;;;3.45;;
56065;SDS011;75952;50.922;4.514;2024-01-27T02:16:11;6.20;;;3.60;;
56065;SDS011;75952;50.922;4.514;2024-01-27T02:18:37;7.35;;;4.15;;
56065;SDS011;75952;50.922;4.514;2024-01-27T02:21:02;11.98;;;3.95;;
56065;SDS011;75952;50.922;4.514;2024-01-27T02:23:28;9.13;;;4.78;;
56065;SDS011;75952;50.922;4.514;2024-01-27T02:25:56;8.40;;;3.75;;
56065;SDS011;75952;50.922;4.514;2024-01-27T02:28:22;8.23;;;4.38;;
56065;SDS011;75952;50.922;4.514;2024-01-27T02:33:15;5.03;;;3.70;;
56065;SDS011;75952;50.922;4.514;2024-01-27T02:35:40;5.03;;;3.47;;
56065;SDS011;75952;50.922;4.514;2024-01-27T02:38:08;8.93;;;5.38;;
56065;SDS011;75952;50.922;4.514;2024-01-27T02:40:36;13.38;;;4.28;;
56065;SDS011;75952;50.922;4.514;2024-01-27T02:43:02;4.72;;;3.05;;
56065;SDS011;75952;50.922;4.514;2024-01-27T02:45:27;5.78;;;4.43;;
56065;SDS011;75952;50.922;4.514;2024-01-27T02:47:53;9.57;;;3.95;;
56065;SDS011;75952;50.922;4.514;2024-01-27T02:50:19;5.97;;;5.03;;
56065;SDS011;75952;50.922;4.514;2024-01-27T02:52:47;4.32;;;2.67;;
56065;SDS011;75952;50.922;4.514;2024-01-27T02:55:17;9.30;;;4.90;;
56065;SDS011;75952;50.922;4.514;2024-01-27T02:57:43;8.75;;;5.78;;
56065;SDS011;75952;50.922;4.514;2024-01-27T03:00:08;6.85;;;4.35;;
56065;SDS011;75952;50.922;4.514;2024-01-27T03:02:34;16.27;;;8.02;;
56065;SDS011;75952;50.922;4.514;2024-01-27T03:05:02;5.60;;;4.18;;
56065;SDS011;75952;50.922;4.514;2024-01-27T03:07:31;7.45;;;4.88;;
56065;SDS011;75952;50.922;4.514;2024-01-27T03:09:56;8.57;;;5.88;;
56065;SDS011;75952;50.922;4.514;2024-01-27T03:12:22;6.75;;;4.80;;
56065;SDS011;75952;50.922;4.514;2024-01-27T03:14:48;18.27;;;8.07;;
56065;SDS011;75952;50.922;4.514;2024-01-27T03:17:15;11.77;;;6.30;;
56065;SDS011;75952;50.922;4.514;2024-01-27T03:19:41;20.55;;;6.28;;
56065;SDS011;75952;50.922;4.514;2024-01-27T03:22:07;16.55;;;6.40;;
56065;SDS011;75952;50.922;4.514;2024-01-27T03:24:32;9.85;;;5.63;;
56065;SDS011;75952;50.922;4.514;2024-01-27T03:27:00;14.20;;;6.32;;
56065;SDS011;75952;50.922;4.514;2024-01-27T03:29:26;12.25;;;5.15;;
56065;SDS011;75952;50.922;4.514;2024-01-27T03:31:53;10.80;;;6.72;;
56065;SDS011;75952;50.922;4.514;2024-01-27T03:34:21;26.42;;;11.63;;
56065;SDS011;75952;50.922;4.514;2024-01-27T03:36:52;17.05;;;7.32;;
56065;SDS011;75952;50.922;4.514;2024-01-27T03:39:18;6.10;;;4.95;;
56065;SDS011;75952;50.922;4.514;2024-01-27T03:41:43;6.50;;;5.25;;
56065;SDS011;75952;50.922;4.514;2024-01-27T03:44:09;7.05;;;5.03;;
56065;SDS011;75952;50.922;4.514;2024-01-27T03:46:35;8.25;;;4.07;;
56065;SDS011;75952;50.922;4.514;2024-01-27T03:49:02;12.85;;;6.75;;
56065;SDS011;75952;50.922;4.514;2024-01-27T03:51:30;9.88;;;4.82;;
56065;SDS011;75952;50.922;4.514;2024-01-27T03:53:56;15.20;;;4.53;;
56065;SDS011;75952;50.922;4.514;2024-01-27T03:56:24;5.53;;;4.45;;
56065;SDS011;75952;50.922;4.514;2024-01-27T03:58:52;8.80;;;3.83;;
56065;SDS011;75952;50.922;4.514;2024-01-27T04:01:17;4.68;;;3.65;;
56065;SDS011;75952;50.922;4.514;2024-01-27T04:03:45;23.58;;;5.20;;
56065;SDS011;75952;50.922;4.514;2024-01-27T04:06:11;9.93;;;4.20;;
56065;SDS011;75952;50.922;4.514;2024-01-27T04:08:36;7.15;;;4.63;;
56065;SDS011;75952;50.922;4.514;2024-01-27T04:11:08;7.15;;;3.92;;
56065;SDS011;75952;50.922;4.514;2024-01-27T04:13:35;5.10;;;3.50;;
56065;SDS011;75952;50.922;4.514;2024-01-27T04:18:28;24.50;;;8.88;;
56065;SDS011;75952;50.922;4.514;2024-01-27T04:20:54;12.65;;;6.80;;
56065;SDS011;75952;50.922;4.514;2024-01-27T04:23:19;9.00;;;5.30;;
56065;SDS011;75952;50.922;4.514;2024-01-27T04:25:45;17.88;;;7.88;;
56065;SDS011;75952;50.922;4.514;2024-01-27T04:28:13;19.08;;;6.68;;
56065;SDS011;75952;50.922;4.514;2024-01-27T04:30:39;13.18;;;5.75;;
56065;SDS011;75952;50.922;4.514;2024-01-27T04:33:05;10.85;;;5.97;;
56065;SDS011;75952;50.922;4.514;2024-01-27T04:35:32;7.25;;;5.07;;
56065;SDS011;75952;50.922;4.514;2024-01-27T04:38:00;12.55;;;5.65;;
56065;SDS011;75952;50.922;4.514;2024-01-27T04:40:26;15.95;;;6.95;;
56065;SDS011;75952;50.922;4.514;2024-01-27T04:42:51;8.38;;;4.85;;
56065;SDS011;75952;50.922;4.514;2024-01-27T04:45:19;6.93;;;4.55;;
56065;SDS011;75952;50.922;4.514;2024-01-27T04:47:45;10.02;;;6.47;;
56065;SDS011;75952;50.922;4.514;2024-01-27T04:50:13;15.27;;;6.78;;
56065;SDS011;75952;50.922;4.514;2024-01-27T04:52:39;9.13;;;5.35;;
56065;SDS011;75952;50.922;4.514;2024-01-27T04:55:06;9.07;;;4.55;;
56065;SDS011;75952;50.922;4.514;2024-01-27T04:57:32;4.43;;;3.75;;
56065;SDS011;75952;50.922;4.514;2024-01-27T04:59:57;9.07;;;4.40;;
56065;SDS011;75952;50.922;4.514;2024-01-27T05:02:23;9.35;;;5.78;;
56065;SDS011;75952;50.922;4.514;2024-01-27T05:04:49;6.25;;;4.53;;
56065;SDS011;75952;50.922;4.514;2024-01-27T05:07:16;6.55;;;4.95;;
56065;SDS011;75952;50.922;4.514;2024-01-27T05:09:42;6.38;;;5.22;;
56065;SDS011;75952;50.922;4.514;2024-01-27T05:12:10;10.60;;;5.25;;
56065;SDS011;75952;50.922;4.514;2024-01-27T05:17:01;12.10;;;5.85;;
56065;SDS011;75952;50.922;4.514;2024-01-27T05:19:27;12.43;;;7.15;;
56065;SDS011;75952;50.922;4.514;2024-01-27T05:21:54;8.23;;;4.43;;
56065;SDS011;75952;50.922;4.514;2024-01-27T05:24:22;11.27;;;6.97;;
56065;SDS011;75952;50.922;4.514;2024-01-27T05:26:50;17.52;;;5.13;;
56065;SDS011;75952;50.922;4.514;2024-01-27T05:29:16;9.63;;;4.13;;
56065;SDS011;75952;50.922;4.514;2024-01-27T05:31:41;5.57;;;4.35;;
56065;SDS011;75952;50.922;4.514;2024-01-27T05:34:12;8.05;;;5.68;;
56065;SDS011;75952;50.922;4.514;2024-01-27T05:36:38;4.28;;;3.88;;
56065;SDS011;75952;50.922;4.514;2024-01-27T05:39:04;8.05;;;4.53;;
56065;SDS011;75952;50.922;4.514;2024-01-27T05:41:30;10.10;;;4.75;;
56065;SDS011;75952;50.922;4.514;2024-01-27T05:43:56;12.23;;;4.93;;
56065;SDS011;75952;50.922;4.514;2024-01-27T05:46:23;6.45;;;3.90;;
56065;SDS011;75952;50.922;4.514;2024-01-27T05:48:51;7.30;;;3.80;;
56065;SDS011;75952;50.922;4.514;2024-01-27T05:51:26;4.88;;;3.47;;
56065;SDS011;75952;50.922;4.514;2024-01-27T05:53:51;7.57;;;4.72;;
56065;SDS011;75952;50.922;4.514;2024-01-27T05:56:20;6.78;;;3.92;;
56065;SDS011;75952;50.922;4.514;2024-01-27T06:01:14;5.20;;;4.32;;
56065;SDS011;75952;50.922;4.514;2024-01-27T06:03:42;6.25;;;4.63;;
56065;SDS011;75952;50.922;4.514;2024-01-27T06:06:08;7.47;;;5.07;;
56065;SDS011;75952;50.922;4.514;2024-01-27T06:08:37;4.50;;;4.00;;
56065;SDS011;75952;50.922;4.514;2024-01-27T06:11:02;9.10;;;4.78;;
56065;SDS011;75952;50.922;4.514;2024-01-27T06:13:28;8.00;;;4.68;;
56065;SDS011;75952;50.922;4.514;2024-01-27T06:16:00;7.43;;;3.85;;
56065;SDS011;75952;50.922;4.514;2024-01-27T06:18:28;7.13;;;5.72;;
56065;SDS011;75952;50.922;4.514;2024-01-27T06:20:53;4.80;;;3.65;;
56065;SDS011;75952;50.922;4.514;2024-01-27T06:23:19;7.10;;;4.28;;
56065;SDS011;75952;50.922;4.514;2024-01-27T06:25:44;8.50;;;5.00;;
56065;SDS011;75952;50.922;4.514;2024-01-27T06:28:10;4.63;;;3.22;;
56065;SDS011;75952;50.922;4.514;2024-01-27T06:30:38;6.85;;;3.67;;
56065;SDS011;75952;50.922;4.514;2024-01-27T06:33:04;6.32;;;4.05;;
56065;SDS011;75952;50.922;4.514;2024-01-27T06:35:29;6.72;;;4.53;;
56065;SDS011;75952;50.922;4.514;2024-01-27T06:37:58;24.20;;;6.63;;
56065;SDS011;75952;50.922;4.514;2024-01-27T06:40:24;8.55;;;3.70;;
56065;SDS011;75952;50.922;4.514;2024-01-27T06:42:49;6.65;;;4.22;;
56065;SDS011;75952;50.922;4.514;2024-01-27T06:45:16;12.77;;;4.72;;
56065;SDS011;75952;50.922;4.514;2024-01-27T06:47:41;8.75;;;5.07;;
56065;SDS011;75952;50.922;4.514;2024-01-27T06:50:07;7.80;;;5.60;;
56065;SDS011;75952;50.922;4.514;2024-01-27T06:52:33;8.80;;;4.80;;
56065;SDS011;75952;50.922;4.514;2024-01-27T06:54:59;7.05;;;4.68;;
56065;SDS011;75952;50.922;4.514;2024-01-27T06:57:29;8.80;;;4.35;;
56065;SDS011;75952;50.922;4.514;2024-01-27T06:59:57;14.20;;;5.50;;
56065;SDS011;75952;50.922;4.514;2024-01-27T07:02:23;11.90;;;7.50;;
56065;SDS011;75952;50.922;4.514;2024-01-27T07:04:53;7.85;;;5.80;;
56065;SDS011;75952;50.922;4.514;2024-01-27T07:07:21;14.48;;;5.25;;
56065;SDS011;75952;50.922;4.514;2024-01-27T07:09:51;8.75;;;5.55;;
56065;SDS011;75952;50.922;4.514;2024-01-27T07:12:20;11.32;;;6.55;;
56065;SDS011;75952;50.922;4.514;2024-01-27T07:14:46;14.45;;;5.15;;
56065;SDS011;75952;50.922;4.514;2024-01-27T07:17:14;10.80;;;6.10;;
56065;SDS011;75952;50.922;4.514;2024-01-27T07:19:39;13.25;;;6.07;;
56065;SDS011;75952;50.922;4.514;2024-01-27T07:22:07;5.07;;;4.57;;
56065;SDS011;75952;50.922;4.514;2024-01-27T07:24:33;7.60;;;4.75;;
56065;SDS011;75952;50.922;4.514;2024-01-27T07:27:01;14.13;;;4.80;;
56065;SDS011;75952;50.922;4.514;2024-01-27T07:29:29;18.90;;;11.10;;
56065;SDS011;75952;50.922;4.514;2024-01-27T07:31:55;48.22;;;29.83;;
56065;SDS011;75952;50.922;4.514;2024-01-27T07:34:25;10.40;;;8.50;;
56065;SDS011;75952;50.922;4.514;2024-01-27T07:36:53;11.82;;;7.28;;
56065;SDS011;75952;50.922;4.514;2024-01-27T07:39:22;6.07;;;5.47;;
56065;SDS011;75952;50.922;4.514;2024-01-27T07:41:48;10.25;;;7.15;;
56065;SDS011;75952;50.922;4.514;2024-01-27T07:44:17;17.13;;;8.27;;
56065;SDS011;75952;50.922;4.514;2024-01-27T07:46:46;16.52;;;8.27;;
56065;SDS011;75952;50.922;4.514;2024-01-27T07:49:11;17.48;;;5.60;;
56065;SDS011;75952;50.922;4.514;2024-01-27T07:51:38;22.48;;;10.88;;
56065;SDS011;75952;50.922;4.514;2024-01-27T07:54:06;14.13;;;7.70;;
56065;SDS011;75952;50.922;4.514;2024-01-27T07:56:31;18.27;;;8.07;;
56065;SDS011;75952;50.922;4.514;2024-01-27T07:59:00;13.02;;;9.63;;
56065;SDS011;75952;50.922;4.514;2024-01-27T08:01:25;23.48;;;11.45;;
56065;SDS011;75952;50.922;4.514;2024-01-27T08:06:21;29.70;;;12.60;;
56065;SDS011;75952;50.922;4.514;2024-01-27T08:08:55;16.90;;;9.32;;
56065;SDS011;75952;50.922;4.514;2024-01-27T08:11:24;22.58;;;10.65;;
56065;SDS011;75952;50.922;4.514;2024-01-27T08:13:53;18.83;;;8.05;;
56065;SDS011;75952;50.922;4.514;2024-01-27T08:16:20;12.63;;;7.88;;
56065;SDS011;75952;50.922;4.514;2024-01-27T08:18:49;22.92;;;11.00;;
56065;SDS011;75952;50.922;4.514;2024-01-27T08:23:40;18.13;;;10.63;;
56065;SDS011;75952;50.922;4.514;2024-01-27T08:26:06;18.83;;;9.63;;
56065;SDS011;75952;50.922;4.514;2024-01-27T08:28:34;15.68;;;10.00;;
56065;SDS011;75952;50.922;4.514;2024-01-27T08:30:59;10.60;;;7.63;;
56065;SDS011;75952;50.922;4.514;2024-01-27T08:33:26;15.43;;;10.70;;
56065;SDS011;75952;50.922;4.514;2024-01-27T08:35:52;10.90;;;7.63;;
56065;SDS011;75952;50.922;4.514;2024-01-27T08:38:18;11.02;;;7.32;;
56065;SDS011;75952;50.922;4.514;2024-01-27T08:40:48;9.32;;;5.63;;
56065;SDS011;75952;50.922;4.514;2024-01-27T08:45:42;8.43;;;5.60;;
56065;SDS011;75952;50.922;4.514;2024-01-27T08:48:07;15.50;;;8.35;;
56065;SDS011;75952;50.922;4.514;2024-01-27T08:50:36;25.92;;;7.78;;
56065;SDS011;75952;50.922;4.514;2024-01-27T08:53:05;16.52;;;10.27;;
56065;SDS011;75952;50.922;4.514;2024-01-27T08:55:30;11.10;;;7.25;;
56065;SDS011;75952;50.922;4.514;2024-01-27T08:57:56;12.88;;;9.15;;
56065;SDS011;75952;50.922;4.514;2024-01-27T09:00:22;12.32;;;8.10;;
56065;SDS011;75952;50.922;4.514;2024-01-27T09:02:48;26.27;;;8.38;;
56065;SDS011;75952;50.922;4.514;2024-01-27T09:05:14;14.77;;;8.20;;
56065;SDS011;75952;50.922;4.514;2024-01-27T09:07:39;9.57;;;6.60;;
56065;SDS011;75952;50.922;4.514;2024-01-27T09:10:05;17.73;;;7.75;;
56065;SDS011;75952;50.922;4.514;2024-01-27T09:12:36;16.50;;;6.40;;
56065;SDS011;75952;50.922;4.514;2024-01-27T09:15:04;14.10;;;6.18;;
56065;SDS011;75952;50.922;4.514;2024-01-27T09:17:32;13.80;;;6.55;;
56065;SDS011;75952;50.922;4.514;2024-01-27T09:19:58;19.98;;;5.63;;
56065;SDS011;75952;50.922;4.514;2024-01-27T09:22:25;14.23;;;6.85;;
56065;SDS011;75952;50.922;4.514;2024-01-27T09:24:53;15.93;;;7.95;;
56065;SDS011;75952;50.922;4.514;2024-01-27T09:27:20;9.82;;;6.75;;
56065;SDS011;75952;50.922;4.514;2024-01-27T09:29:46;17.50;;;6.78;;
56065;SDS011;75952;50.922;4.514;2024-01-27T09:32:14;9.15;;;5.38;;
56065;SDS011;75952;50.922;4.514;2024-01-27T09:34:42;23.70;;;7.72;;
56065;SDS011;75952;50.922;4.514;2024-01-27T09:37:07;16.85;;;8.05;;
56065;SDS011;75952;50.922;4.514;2024-01-27T09:39:35;10.57;;;6.80;;
56065;SDS011;75952;50.922;4.514;2024-01-27T09:44:29;12.13;;;6.77;;
56065;SDS011;75952;50.922;4.514;2024-01-27T09:46:57;16.90;;;8.30;;
56065;SDS011;75952;50.922;4.514;2024-01-27T09:49:22;15.48;;;8.90;;
56065;SDS011;75952;50.922;4.514;2024-01-27T09:51:51;15.48;;;7.25;;
56065;SDS011;75952;50.922;4.514;2024-01-27T09:54:21;12.73;;;7.15;;
56065;SDS011;75952;50.922;4.514;2024-01-27T09:56:46;17.40;;;6.38;;
56065;SDS011;75952;50.922;4.514;2024-01-27T09:59:12;25.65;;;12.25;;
56065;SDS011;75952;50.922;4.514;2024-01-27T10:01:43;17.67;;;10.30;;
56065;SDS011;75952;50.922;4.514;2024-01-27T10:04:09;15.20;;;8.73;;
56065;SDS011;75952;50.922;4.514;2024-01-27T10:06:35;24.10;;;11.15;;
56065;SDS011;75952;50.922;4.514;2024-01-27T10:09:04;11.40;;;8.23;;
56065;SDS011;75952;50.922;4.514;2024-01-27T10:11:30;24.23;;;16.80;;
56065;SDS011;75952;50.922;4.514;2024-01-27T10:13:58;15.95;;;9.85;;
56065;SDS011;75952;50.922;4.514;2024-01-27T10:16:27;7.05;;;5.32;;
56065;SDS011;75952;50.922;4.514;2024-01-27T10:19:00;10.90;;;5.60;;
56065;SDS011;75952;50.922;4.514;2024-01-27T10:21:26;9.68;;;6.18;;
56065;SDS011;75952;50.922;4.514;2024-01-27T10:23:52;12.07;;;6.53;;
56065;SDS011;75952;50.922;4.514;2024-01-27T10:26:23;23.02;;;6.57;;
56065;SDS011;75952;50.922;4.514;2024-01-27T10:28:54;15.52;;;5.78;;
56065;SDS011;75952;50.922;4.514;2024-01-27T10:31:25;16.95;;;6.07;;
56065;SDS011;75952;50.922;4.514;2024-01-27T10:33:58;26.38;;;8.00;;
56065;SDS011;75952;50.922;4.514;2024-01-27T10:36:26;13.48;;;4.90;;
56065;SDS011;75952;50.922;4.514;2024-01-27T10:39:13;21.45;;;9.68;;
56065;SDS011;75952;50.922;4.514;2024-01-27T10:41:44;16.92;;;10.32;;
56065;SDS011;75952;50.922;4.514;2024-01-27T10:44:12;13.02;;;6.63;;
56065;SDS011;75952;50.922;4.514;2024-01-27T10:46:39;16.20;;;6.53;;
56065;SDS011;75952;50.922;4.514;2024-01-27T10:49:12;10.43;;;4.68;;
56065;SDS011;75952;50.922;4.514;2024-01-27T10:54:10;9.63;;;5.28;;
56065;SDS011;75952;50.922;4.514;2024-01-27T10:56:40;6.60;;;3.50;;
56065;SDS011;75952;50.922;4.514;2024-01-27T10:59:10;9.27;;;4.72;;
56065;SDS011;75952;50.922;4.514;2024-01-27T11:01:38;8.90;;;4.50;;
56065;SDS011;75952;50.922;4.514;2024-01-27T11:04:06;9.65;;;5.20;;
56065;SDS011;75952;50.922;4.514;2024-01-27T11:06:38;10.15;;;4.43;;
56065;SDS011;75952;50.922;4.514;2024-01-27T11:09:04;15.40;;;5.93;;
56065;SDS011;75952;50.922;4.514;2024-01-27T11:11:33;9.40;;;3.72;;
56065;SDS011;75952;50.922;4.514;2024-01-27T11:14:00;10.75;;;4.90;;
56065;SDS011;75952;50.922;4.514;2024-01-27T11:16:26;9.00;;;4.97;;
56065;SDS011;75952;50.922;4.514;2024-01-27T11:18:53;7.82;;;4.60;;
56065;SDS011;75952;50.922;4.514;2024-01-27T11:21:19;10.82;;;4.32;;
56065;SDS011;75952;50.922;4.514;2024-01-27T11:23:45;9.65;;;5.65;;
56065;SDS011;75952;50.922;4.514;2024-01-27T11:26:17;6.00;;;3.58;;
56065;SDS011;75952;50.922;4.514;2024-01-27T11:28:46;12.52;;;5.75;;
56065;SDS011;75952;50.922;4.514;2024-01-27T11:31:12;13.45;;;4.07;;
56065;SDS011;75952;50.922;4.514;2024-01-27T11:33:46;6.40;;;3.22;;
56065;SDS011;75952;50.922;4.514;2024-01-27T11:36:22;5.68;;;2.67;;
56065;SDS011;75952;50.922;4.514;2024-01-27T11:38:49;7.45;;;3.83;;
56065;SDS011;75952;50.922;4.514;2024-01-27T11:41:27;12.27;;;4.40;;
56065;SDS011;75952;50.922;4.514;2024-01-27T11:43:57;14.77;;;6.28;;
56065;SDS011;75952;50.922;4.514;2024-01-27T11:46:27;12.85;;;4.40;;
56065;SDS011;75952;50.922;4.514;2024-01-27T11:48:52;11.25;;;4.45;;
56065;SDS011;75952;50.922;4.514;2024-01-27T11:51:18;13.95;;;2.72;;
56065;SDS011;75952;50.922;4.514;2024-01-27T11:53:44;4.50;;;2.45;;
56065;SDS011;75952;50.922;4.514;2024-01-27T11:56:10;10.70;;;3.90;;
56065;SDS011;75952;50.922;4.514;2024-01-27T11:58:45;11.50;;;3.30;;
56065;SDS011;75952;50.922;4.514;2024-01-27T12:01:14;4.97;;;3.38;;
56065;SDS011;75952;50.922;4.514;2024-01-27T12:03:46;5.05;;;2.42;;
56065;SDS011;75952;50.922;4.514;2024-01-27T12:06:13;5.32;;;2.25;;
56065;SDS011;75952;50.922;4.514;2024-01-27T12:08:40;8.23;;;2.92;;
56065;SDS011;75952;50.922;4.514;2024-01-27T12:11:14;6.90;;;2.20;;
56065;SDS011;75952;50.922;4.514;2024-01-27T12:13:42;11.23;;;4.10;;
56065;SDS011;75952;50.922;4.514;2024-01-27T12:16:07;7.60;;;3.58;;
56065;SDS011;75952;50.922;4.514;2024-01-27T12:18:34;5.63;;;2.88;;
56065;SDS011;75952;50.922;4.514;2024-01-27T12:21:00;4.00;;;2.97;;
56065;SDS011;75952;50.922;4.514;2024-01-27T12:23:28;10.40;;;2.92;;
56065;SDS011;75952;50.922;4.514;2024-01-27T12:25:54;13.63;;;6.75;;
56065;SDS011;75952;50.922;4.514;2024-01-27T12:28:21;14.60;;;6.18;;
56065;SDS011;75952;50.922;4.514;2024-01-27T12:30:48;11.75;;;7.85;;
56065;SDS011;75952;50.922;4.514;2024-01-27T12:33:15;5.50;;;3.67;;
56065;SDS011;75952;50.922;4.514;2024-01-27T12:35:47;4.22;;;2.95;;
56065;SDS011;75952;50.922;4.514;2024-01-27T12:38:14;16.42;;;4.57;;
56065;SDS011;75952;50.922;4.514;2024-01-27T12:40:39;12.55;;;6.78;;
56065;SDS011;75952;50.922;4.514;2024-01-27T12:43:05;8.05;;;4.05;;
56065;SDS011;75952;50.922;4.514;2024-01-27T12:45:31;7.18;;;4.57;;
56065;SDS011;75952;50.922;4.514;2024-01-27T12:47:59;4.97;;;2.72;;
56065;SDS011;75952;50.922;4.514;2024-01-27T12:50:26;17.48;;;4.28;;
56065;SDS011;75952;50.922;4.514;2024-01-27T12:52:51;9.32;;;3.05;;
56065;SDS011;75952;50.922;4.514;2024-01-27T12:55:17;14.02;;;5.43;;
56065;SDS011;75952;50.922;4.514;2024-01-27T12:57:43;10.93;;;4.55;;
56065;SDS011;75952;50.922;4.514;2024-01-27T13:00:09;6.22;;;3.97;;
56065;SDS011;75952;50.922;4.514;2024-01-27T13:02:36;6.38;;;2.25;;
56065;SDS011;75952;50.922;4.514;2024-01-27T13:05:08;7.47;;;2.20;;
56065;SDS011;75952;50.922;4.514;2024-01-27T13:07:34;13.27;;;4.65;;
56065;SDS011;75952;50.922;4.514;2024-01-27T13:10:02;22.30;;;4.00;;
56065;SDS011;75952;50.922;4.514;2024-01-27T13:12:28;14.35;;;4.22;;
56065;SDS011;75952;50.922;4.514;2024-01-27T13:14:55;5.82;;;2.88;;
56065;SDS011;75952;50.922;4.514;2024-01-27T13:17:21;8.10;;;3.55;;
56065;SDS011;75952;50.922;4.514;2024-01-27T13:19:52;4.80;;;2.10;;
56065;SDS011;75952;50.922;4.514;2024-01-27T13:22:17;10.20;;;3.25;;
56065;SDS011;75952;50.922;4.514;2024-01-27T13:24:49;8.20;;;4.78;;
56065;SDS011;75952;50.922;4.514;2024-01-27T13:27:17;10.80;;;3.92;;
56065;SDS011;75952;50.922;4.514;2024-01-27T13:29:45;3.50;;;2.40;;
56065;SDS011;75952;50.922;4.514;2024-01-27T13:32:11;11.05;;;3.97;;
56065;SDS011;75952;50.922;4.514;2024-01-27T13:34:36;22.77;;;9.75;;
56065;SDS011;75952;50.922;4.514;2024-01-27T13:37:05;14.73;;;10.43;;
56065;SDS011;75952;50.922;4.514;2024-01-27T13:39:30;8.05;;;5.35;;
56065;SDS011;75952;50.922;4.514;2024-01-27T13:41:58;6.47;;;3.53;;
56065;SDS011;75952;50.922;4.514;2024-01-27T13:44:24;4.57;;;2.40;;
56065;SDS011;75952;50.922;4.514;2024-01-27T13:46:50;6.22;;;4.45;;
56065;SDS011;75952;50.922;4.514;2024-01-27T13:49:18;7.82;;;4.32;;
56065;SDS011;75952;50.922;4.514;2024-01-27T13:51:45;5.72;;;3.28;;
56065;SDS011;75952;50.922;4.514;2024-01-27T13:54:11;5.60;;;3.67;;
56065;SDS011;75952;50.922;4.514;2024-01-27T13:56:36;4.50;;;2.70;;
56065;SDS011;75952;50.922;4.514;2024-01-27T13:59:05;4.90;;;2.03;;
56065;SDS011;75952;50.922;4.514;2024-01-27T14:01:31;4.57;;;2.17;;
56065;SDS011;75952;50.922;4.514;2024-01-27T14:03:57;9.00;;;3.15;;
56065;SDS011;75952;50.922;4.514;2024-01-27T14:06:23;6.25;;;2.95;;
56065;SDS011;75952;50.922;4.514;2024-01-27T14:08:49;5.45;;;2.35;;
56065;SDS011;75952;50.922;4.514;2024-01-27T14:11:14;6.93;;;2.63;;
56065;SDS011;75952;50.922;4.514;2024-01-27T14:13:40;5.53;;;4.10;;
56065;SDS011;75952;50.922;4.514;2024-01-27T14:18:34;2.67;;;2.20;;
56065;SDS011;75952;50.922;4.514;2024-01-27T14:20:59;5.68;;;2.22;;
56065;SDS011;75952;50.922;4.514;2024-01-27T14:23:27;6.07;;;3.67;;
56065;SDS011;75952;50.922;4.514;2024-01-27T14:25:56;4.10;;;2.72;;
56065;SDS011;75952;50.922;4.514;2024-01-27T14:28:27;7.93;;;2.80;;
56065;SDS011;75952;50.922;4.514;2024-01-27T14:30:55;4.93;;;2.45;;
56065;SDS011;75952;50.922;4.514;2024-01-27T14:33:21;5.18;;;3.05;;
56065;SDS011;75952;50.922;4.514;2024-01-27T14:35:48;2.70;;;1.53;;
56065;SDS011;75952;50.922;4.514;2024-01-27T14:38:14;5.38;;;1.60;;
56065;SDS011;75952;50.922;4.514;2024-01-27T14:40:40;3.40;;;2.40;;
56065;SDS011;75952;50.922;4.514;2024-01-27T14:43:05;5.38;;;2.45;;
56065;SDS011;75952;50.922;4.514;2024-01-27T14:45:37;7.00;;;1.88;;
56065;SDS011;75952;50.922;4.514;2024-01-27T14:48:03;5.05;;;2.10;;
56065;SDS011;75952;50.922;4.514;2024-01-27T14:50:30;3.55;;;2.28;;
56065;SDS011;75952;50.922;4.514;2024-01-27T14:52:56;4.38;;;1.77;;
56065;SDS011;75952;50.922;4.514;2024-01-27T14:55:21;6.13;;;3.13;;
56065;SDS011;75952;50.922;4.514;2024-01-27T14:57:51;4.25;;;1.65;;
56065;SDS011;75952;50.922;4.514;2024-01-27T15:00:17;3.25;;;1.42;;
56065;SDS011;75952;50.922;4.514;2024-01-27T15:02:45;2.72;;;1.90;;
56065;SDS011;75952;50.922;4.514;2024-01-27T15:05:10;4.68;;;2.75;;
56065;SDS011;75952;50.922;4.514;2024-01-27T15:07:36;4.30;;;2.42;;
56065;SDS011;75952;50.922;4.514;2024-01-27T15:10:05;4.90;;;2.28;;